Time;durP1;ratioP1;P1;durP2;ratioP2;P2;SDS_P1;SDS_P2;PMS_P1;PMS_P2;Temp;Humidity;BMP_temperature;BMP_pressure;BME280_temperature;BME280_humidity;BME280_pressure;Samples;Min_cycle;Max_cycle;Signal;HPM_P1;HPM_P2
2021/11/16 00:09:54;;;;;;;53.70;31.70;;;;;;;4.70;82.29;100739.44;434233;1309;143895;-62
2021/11/16 00:20:02;;;;;;;57.10;31.70;;;;;;;4.71;82.49;100731.27;433360;1312;223681;-62
2021/11/16 00:30:10;;;;;;;47.30;32.90;;;;;;;4.70;82.55;100722.27;433872;1312;142890;-62
2021/11/16 00:40:20;;;;;;;50.60;34.60;;;;;;;4.70;82.48;100717.92;434576;1312;144015;-62
2021/11/16 00:50:27;;;;;;;46.10;31.60;;;;;;;4.68;82.24;100717.79;434919;1312;142887;-62
2021/11/16 01:00:33;;;;;;;48.80;32.20;;;;;;;4.67;82.45;100712.10;433910;1313;145930;-63
2021/11/16 01:10:42;;;;;;;41.40;27.90;;;;;;;4.67;82.33;100713.13;434883;1308;141684;-63
2021/11/16 01:20:48;;;;;;;45.80;30.90;;;;;;;4.67;82.20;100708.79;432571;1313;144953;-63
2021/11/16 01:30:58;;;;;;;44.00;31.20;;;;;;;4.68;82.18;100695.09;435050;1311;142519;-62
2021/11/16 01:41:04;;;;;;;44.60;30.50;;;;;;;4.67;81.91;100689.36;435135;1310;142244;-62
2021/11/16 01:51:10;;;;;;;52.60;31.90;;;;;;;4.67;81.90;100680.00;433942;1314;145294;-62
2021/11/16 02:01:17;;;;;;;48.90;33.10;;;;;;;4.69;82.05;100669.56;433884;1314;145511;-61
2021/11/16 02:11:25;;;;;;;47.00;30.00;;;;;;;4.62;81.92;100667.27;433553;1311;145251;-62
2021/11/16 02:21:31;;;;;;;53.00;34.90;;;;;;;4.57;82.11;100647.10;433647;1314;143442;-62
2021/11/16 02:31:38;;;;;;;44.40;29.50;;;;;;;4.55;81.90;100632.58;427356;1314;201380;-62
2021/11/16 02:41:49;;;;;;;50.20;33.50;;;;;;;4.56;81.99;100623.02;433521;1315;142526;-63
2021/11/16 02:51:56;;;;;;;49.70;32.40;;;;;;;4.54;82.04;100615.77;433416;1312;142982;-62
2021/11/16 03:02:02;;;;;;;43.70;31.50;;;;;;;4.52;82.11;100618.08;434718;1312;142711;-62
2021/11/16 03:12:10;;;;;;;49.30;31.30;;;;;;;4.49;82.04;100613.11;431256;1311;142183;-62
2021/11/16 03:22:16;;;;;;;;;;;;;;;4.46;82.19;100612.14;434725;1311;142727;-63
2021/11/16 03:32:22;;;;;;;47.40;32.90;;;;;;;4.44;82.20;100601.59;434904;1311;128061;-62
2021/11/16 03:42:28;;;;;;;50.90;32.00;;;;;;;4.45;82.37;100602.44;432586;1312;144902;-62
2021/11/16 03:52:38;;;;;;;51.60;35.30;;;;;;;4.45;82.27;100600.35;433881;1310;145696;-61
2021/11/16 04:02:45;;;;;;;53.50;32.90;;;;;;;4.43;82.32;100605.28;434146;1312;142422;-62
2021/11/16 04:12:56;;;;;;;50.00;33.70;;;;;;;4.46;82.36;100606.23;433166;1310;142807;-62
2021/11/16 04:23:05;;;;;;;51.90;33.90;;;;;;;4.47;82.59;100613.16;435309;1310;141729;-63
2021/11/16 04:33:13;;;;;;;55.60;34.80;;;;;;;4.46;82.57;100612.83;434234;1309;144048;-62
2021/11/16 04:43:20;;;;;;;53.50;33.70;;;;;;;4.47;82.40;100609.67;433301;1311;145392;-63
2021/11/16 04:53:51;;;;;;;50.70;35.30;;;;;;;4.49;82.28;100606.16;431704;1312;141881;-63
2021/11/16 05:03:58;;;;;;;48.30;31.20;;;;;;;4.47;82.35;100608.48;435215;1310;144169;-63
2021/11/16 05:14:04;;;;;;;48.60;32.90;;;;;;;4.48;82.23;100617.64;434948;1310;141748;-62
2021/11/16 05:24:13;;;;;;;48.80;32.80;;;;;;;4.51;82.08;100611.68;434437;1309;142766;-62
2021/11/16 05:34:19;;;;;;;49.40;32.00;;;;;;;4.52;82.36;100616.02;433925;1309;142601;-62
2021/11/16 05:44:25;;;;;;;49.10;32.10;;;;;;;4.51;82.43;100620.02;428130;1309;142071;-62
2021/11/16 05:54:34;;;;;;;51.10;31.00;;;;;;;4.51;82.66;100634.73;418408;1309;142165;-62
2021/11/16 06:04:40;;;;;;;54.80;33.70;;;;;;;4.49;82.42;100637.04;426827;1309;141602;-63
2021/11/16 06:14:46;;;;;;;55.60;31.50;;;;;;;4.50;82.51;100641.00;433143;1309;144374;-63
2021/11/16 06:24:53;;;;;;;61.20;35.40;;;;;;;4.54;82.88;100632.92;433020;1312;142364;-63
2021/11/16 06:34:59;;;;;;;54.20;32.50;;;;;;;4.58;82.69;100629.58;434630;1312;147220;-63
2021/11/16 06:45:07;;;;;;;58.60;35.40;;;;;;;4.61;82.73;100636.23;433729;1311;142945;-62
2021/11/16 06:55:12;;;;;;;;;;;;;;;4.64;82.72;100639.13;434699;1310;143151;-62
2021/11/16 07:05:18;;;;;;;67.60;39.80;;;;;;;4.72;82.92;100631.50;434593;1309;127924;-62
2021/11/16 07:15:25;;;;;;;63.20;37.70;;;;;;;4.78;82.76;100619.38;429570;1312;146313;-62
2021/11/16 07:25:31;;;;;;;63.20;35.40;;;;;;;4.90;82.62;100609.05;427316;1311;143205;-63
2021/11/16 07:35:38;;;;;;;68.40;39.00;;;;;;;4.97;82.68;100607.48;433776;1313;145408;-61
2021/11/16 07:45:44;;;;;;;;;;;;;;;5.07;82.56;100597.88;434739;1311;142257;-63
2021/11/16 07:56:00;;;;;;;55.20;34.60;;;;;;;5.12;82.62;100606.06;426650;1310;129241;-66
2021/11/16 08:06:13;;;;;;;50.50;32.30;;;;;;;5.14;82.34;100607.42;425414;1312;142087;-63
2021/11/16 08:16:20;;;;;;;61.10;34.40;;;;;;;5.21;82.44;100604.30;424237;1310;201046;-63
2021/11/16 08:26:31;;;;;;;50.50;31.50;;;;;;;5.31;82.33;100593.80;428816;1311;276890;-66
2021/11/16 08:36:48;;;;;;;56.70;34.80;;;;;;;5.42;81.81;100588.29;421544;1312;141907;-59
2021/11/16 08:46:54;;;;;;;60.40;33.60;;;;;;;5.55;81.72;100586.75;430044;1310;142187;-60
2021/11/16 08:57:00;;;;;;;55.50;35.10;;;;;;;5.59;81.59;100571.85;422742;1311;142729;-59
2021/11/16 09:07:18;;;;;;;54.30;34.90;;;;;;;5.79;81.55;100573.91;425731;1310;143498;-60
2021/11/16 09:17:24;;;;;;;51.80;32.60;;;;;;;5.87;81.20;100570.74;426989;1310;142205;-61
2021/11/16 09:27:40;;;;;;;52.90;32.80;;;;;;;6.03;80.90;100560.58;433528;1309;142422;-61
2021/11/16 09:37:48;;;;;;;51.00;31.10;;;;;;;6.24;80.79;100562.40;433306;1311;141670;-62
2021/11/16 09:47:54;;;;;;;53.00;32.30;;;;;;;6.54;80.24;100563.55;432928;1310;143055;-63
2021/11/16 09:58:02;;;;;;;48.40;30.00;;;;;;;6.62;79.75;100562.11;420410;1310;10002837;-63
2021/11/16 10:08:11;;;;;;;47.80;30.40;;;;;;;6.63;79.45;100562.43;430300;1309;143937;-61
2021/11/16 10:18:19;;;;;;;49.40;34.40;;;;;;;6.60;79.48;100549.81;423684;1313;142510;-65
2021/11/16 10:28:26;;;;;;;49.70;31.00;;;;;;;6.85;79.35;100530.73;434338;1311;143077;-65
2021/11/16 10:38:34;;;;;;;52.10;28.40;;;;;;;7.23;78.86;100511.14;433298;1311;142505;-64
2021/11/16 10:48:41;;;;;;;45.40;30.10;;;;;;;7.55;78.27;100505.67;420331;1310;142158;-66
2021/11/16 10:58:48;;;;;;;37.90;26.10;;;;;;;7.95;77.66;100489.88;424531;1312;142400;-65
2021/11/16 11:08:56;;;;;;;38.50;27.10;;;;;;;8.05;76.90;100475.36;423179;1313;144073;-65
2021/11/16 11:19:02;;;;;;;40.10;29.30;;;;;;;8.00;76.61;100465.64;419053;1312;143113;-62
2021/11/16 11:29:23;;;;;;;46.40;30.90;;;;;;;7.86;76.47;100455.00;421567;1311;142702;-65
2021/11/16 11:39:31;;;;;;;38.30;26.60;;;;;;;7.72;76.39;100449.10;419559;1311;146740;-66
2021/11/16 11:49:39;;;;;;;;;;;;;;;7.56;76.48;100439.39;424105;1311;142508;-56
2021/11/16 11:59:45;;;;;;;39.00;26.00;;;;;;;7.47;76.50;100424.10;420542;1312;129502;-58
2021/11/16 12:09:54;;;;;;;38.60;25.20;;;;;;;7.47;76.58;100407.69;420472;1309;142616;-60
2021/11/16 12:20:01;;;;;;;43.10;28.40;;;;;;;7.43;76.63;100394.08;434257;1311;142176;-58
2021/11/16 12:30:10;;;;;;;44.60;29.00;;;;;;;7.40;76.87;100384.25;434342;1309;142604;-56
2021/11/16 12:40:21;;;;;;;41.70;26.60;;;;;;;7.46;76.84;100380.02;434751;1308;142788;-57
2021/11/16 12:50:28;;;;;;;49.40;32.30;;;;;;;7.50;76.65;100360.56;434355;1312;142981;-57
2021/11/16 13:00:39;;;;;;;42.60;29.50;;;;;;;7.49;76.63;100349.79;433852;1313;142424;-60
2021/11/16 13:10:54;;;;;;;46.30;28.10;;;;;;;7.54;76.70;100350.11;433713;1311;142551;-71
2021/11/16 13:21:31;;;;;;;46.70;31.40;;;;;;;7.54;76.47;100342.45;433854;1309;142982;-62
2021/11/16 13:31:45;;;;;;;54.50;34.90;;;;;;;7.46;76.51;100332.30;434558;1313;142100;-69
2021/11/16 13:41:53;;;;;;;53.30;36.60;;;;;;;7.30;77.03;100334.64;430928;1311;143467;-75
2021/11/16 13:52:08;;;;;;;50.90;32.30;;;;;;;7.07;77.38;100330.46;421379;1313;142326;-72
2021/11/16 14:02:14;;;;;;;59.70;39.60;;;;;;;6.85;77.66;100325.53;423234;1309;142327;-70
2021/11/16 14:12:25;;;;;;;57.60;37.60;;;;;;;6.64;78.07;100317.91;433798;1310;142217;-71
2021/11/16 14:22:37;;;;;;;61.60;36.20;;;;;;;6.40;78.42;100319.30;435242;1309;143359;-74
2021/11/16 14:32:43;;;;;;;60.10;38.30;;;;;;;6.10;78.84;100313.16;434514;1312;141332;-74
2021/11/16 14:42:50;;;;;;;55.90;35.20;;;;;;;5.84;79.32;100305.85;432946;1310;142140;-69
2021/11/16 14:53:13;;;;;;;60.30;38.30;;;;;;;5.57;79.70;100297.33;434959;1311;141697;-68
2021/11/16 15:03:20;;;;;;;64.60;40.70;;;;;;;5.29;80.12;100297.66;434493;1309;141883;-65
2021/11/16 15:13:26;;;;;;;67.30;43.00;;;;;;;5.01;80.77;100299.70;418529;1312;10002293;-65
2021/11/16 15:23:37;;;;;;;70.00;42.30;;;;;;;4.80;80.84;100298.23;434527;1312;142355;-60
2021/11/16 15:34:03;;;;;;;69.10;41.90;;;;;;;4.59;81.57;100293.44;420648;1312;142713;-61
2021/11/16 16:05:23;;;;;;;60.90;39.50;;;;;;;3.98;82.49;100286.05;432598;1311;144045;-64
2021/11/16 16:15:32;;;;;;;68.10;41.10;;;;;;;3.79;82.65;100279.91;430497;1308;141557;-66
2021/11/16 16:25:38;;;;;;;64.10;39.20;;;;;;;3.62;83.26;100282.59;432939;1309;262575;-63
2021/11/16 16:35:45;;;;;;;67.90;41.60;;;;;;;3.49;83.64;100274.06;424199;1311;142105;-63
2021/11/16 16:45:52;;;;;;;69.40;42.50;;;;;;;3.33;83.66;100276.35;426248;1310;145512;-62
2021/11/16 16:55:57;;;;;;;;;;;;;;;3.15;84.15;100273.63;421886;1310;142457;-58
2021/11/16 17:06:04;;;;;;;68.40;42.70;;;;;;;2.98;84.27;100267.59;434758;1312;129146;-64
2021/11/16 17:16:11;;;;;;;77.50;44.20;;;;;;;2.86;84.42;100252.46;435006;1309;141615;-62
2021/11/16 17:26:18;;;;;;;71.10;43.30;;;;;;;2.72;84.53;100249.13;435157;1307;142500;-63
2021/11/16 17:36:24;;;;;;;75.50;47.70;;;;;;;2.58;84.84;100231.09;432607;1312;142441;-65
2021/11/16 17:46:34;;;;;;;76.30;44.50;;;;;;;2.46;85.07;100218.39;428568;1312;143263;-61
2021/11/16 17:56:41;;;;;;;64.50;40.20;;;;;;;2.33;85.11;100209.13;427986;1313;197682;-63
2021/11/16 18:17:10;;;;;;;73.10;44.90;;;;;;;2.10;85.69;100185.73;435065;1312;141650;-64
2021/11/16 18:27:17;;;;;;;74.70;45.40;;;;;;;2.04;85.68;100174.11;428933;1313;143129;-63
2021/11/16 18:37:24;;;;;;;68.80;43.20;;;;;;;1.94;85.92;100168.42;433929;1312;180027;-64
2021/11/16 18:47:35;;;;;;;80.50;47.90;;;;;;;1.84;86.05;100170.86;431141;1312;141628;-64
2021/11/16 18:57:42;;;;;;;92.90;51.90;;;;;;;1.89;86.62;100159.89;434031;1308;142904;-63
2021/11/16 19:07:48;;;;;;;86.60;48.80;;;;;;;2.07;86.75;100159.19;434060;1316;142250;-63
2021/11/16 19:17:54;;;;;;;85.40;47.50;;;;;;;2.19;86.77;100157.05;427869;1314;142146;-62
2021/11/16 19:28:04;;;;;;;96.10;46.00;;;;;;;2.29;86.86;100163.77;431210;1313;142657;-64
2021/11/16 19:38:11;;;;;;;90.10;44.90;;;;;;;2.32;87.01;100167.16;432068;1315;144255;-64
2021/11/16 19:48:18;;;;;;;88.90;43.60;;;;;;;2.33;87.02;100171.63;434103;1311;146285;-68
2021/11/16 19:58:24;;;;;;;76.70;40.80;;;;;;;2.37;87.21;100177.43;427080;1313;10001982;-67
2021/11/16 20:08:33;;;;;;;72.10;40.70;;;;;;;2.33;86.98;100174.76;433237;1312;143706;-65
2021/11/16 20:18:41;;;;;;;74.80;42.40;;;;;;;2.34;87.32;100170.93;428622;1313;142190;-69
2021/11/16 20:28:52;;;;;;;78.00;40.40;;;;;;;2.22;87.10;100174.45;426434;1311;141517;-72
2021/11/16 20:39:16;;;;;;;79.50;40.30;;;;;;;2.12;87.37;100171.38;432620;1308;142671;-62
2021/11/16 20:59:50;;;;;;;66.80;39.30;;;;;;;2.05;87.49;100163.55;422825;1309;142457;-62
2021/11/16 21:09:55;;;;;;;71.30;36.30;;;;;;;1.99;87.52;100153.14;434296;1312;142267;-66
2021/11/16 21:20:02;;;;;;;62.50;36.20;;;;;;;1.92;87.80;100145.14;432132;1312;143210;-74
2021/11/16 21:30:10;;;;;;;61.00;33.50;;;;;;;1.88;87.82;100140.74;432355;1313;142399;-73
2021/11/16 21:40:18;;;;;;;50.70;31.70;;;;;;;1.75;87.75;100135.46;429941;1312;141843;-63
2021/11/16 21:50:23;;;;;;;55.00;34.90;;;;;;;1.72;87.89;100136.71;420715;1312;144257;-62
2021/11/16 22:00:30;;;;;;;62.50;34.40;;;;;;;1.74;87.85;100134.61;419262;1310;142121;-62
2021/11/16 22:20:44;;;;;;;66.90;35.10;;;;;;;1.63;88.28;100127.06;417856;1313;142371;-66
2021/11/16 22:30:51;;;;;;;57.30;36.10;;;;;;;1.64;88.09;100128.94;418860;1307;142333;-62
2021/11/16 22:40:58;;;;;;;61.10;35.60;;;;;;;1.62;88.28;100135.70;418365;1312;142087;-70
2021/11/16 22:51:05;;;;;;;58.70;33.70;;;;;;;1.58;88.25;100137.67;433954;1312;142170;-67
